Marathon, FL

2:43 PM EDT on September 17, 2014 (GMT -0400)
Dade County-Homestead Regional | Change Station
CLOSE
Current Station
Airport
Location: Homestead AFB,
Elevation: 7 ft
Nearby Weather Stations

Elev 7 ft 25.49 °N, 80.38 °W | Updated 45 minutes ago

Partly Cloudy
Partly Cloudy
88 °F
Feels Like 96 °F
N
8
Wind Variable Wind from East

Today
High -- | Low -- °F
--% Chance of Precip.
Yesterday
High -- | Low -- °F
Precip. -- in
7:10 AM 7:25 PM
Waning Crescent, 34% visible
Pressure 29.94 in
Visibility 10.0 miles
Clouds Overcast 3700 ft
Heat Index 96 °F
Dew Point 73 °F
Humidity 62%
Rainfall 0.00 in
Snow Depth Not available.
UV 4 out of 12
Pollen 4.00 out of 12
Air Quality Not available.
Flu Activity Not available.
METAR KHST 171758Z AUTO 10007KT 10SM OVC037 31/23 A2993 RMK AO2 SLP138 57020

More Conditions Fewer Conditions

Pressure 29.94 in
Visibility 10.0 miles
Clouds Overcast 3700 ft
Heat Index 96 °F
Dew Point 73 °F
Humidity 62%
Rainfall 0.00 in
Snow Depth Not available.
UV 4 out of 12
Pollen 4.00 out of 12
Air Quality Not available.
Flu Activity Not available.
METAR KHST 171758Z AUTO 10007KT 10SM OVC037 31/23 A2993 RMK AO2 SLP138 57020

More Conditions Fewer Conditions

Nowcast | as of 2:24 PM EDT on September 17, 2014

Isolated showers will wax and wane as they drift southeastward across the coastal waters surrounding the island chain...the Florida The Straits south...and the Gulf waters beyond 20 nm west of Chokoloskee through 400 PM. These showers will contain light to moderate rain slightly reducing visibilities. Some island locations may see brief light rain producing several hundredths of an inch of rainfall.

×

10-Day Weather Forecast

Almanac

Astronomy

Sep. 17, 2014 Rise Set
Actual Time 7:10 AM EDT 7:25 PM EDT
Civil Twilight 6:47 AM EDT 7:48 PM EDT
Nautical Twilight 6:21 AM EDT 8:15 PM EDT
Astronomical Twilight 5:54 AM EDT 8:41 PM EDT
Moon 1:35 AM EDT 3:09 PM EDT
Length of Visible Light 13h 00m
Length of Day
12h 14m
Tomorrow will be 1m 25s shorter.
Waning Crescent, 34% of the Moon is Illuminated
Today
Waning Crescent
Sep 24
New
Oct 1
First Quarter
Oct 8
Full
Oct 15
Last Quarter

Today's Extremes

State Highs State Lows

Community

WunderPhotos

Upload Photos

1,754,127 photos uploaded!

WunderBlogs® & News

Nearby

Snow Depth

Station Depth Elevation
No new snow has been reported.

Earthquake Activity

City Distance Mag. Time & Date
No recent earthquake activity has been reported nearby.
Minimum magnitude displayed is 2.5.

Coastal Water Temperatures

Place Temperature
Vaca Key, FL 87.1 °F
Key West, FL 84.9 °F

Nearby Weather Stations